High Tide — D5AA7 — position and weather

sailwx.info

Track history (hours):
 
Tides and Currents Weather Stations Pressure Air Temp Water Temp Dewpoint Dewpoint Depression Visibility Wind Speed Wind Dir Waves Ship Positions

High Tide

Last reported at 2015-Jan-28 11:30 UTC. Time now 2015-Mar-31 12:36 UTC.
Position S 32°32' E 152°43'.
Warning: this ship's position is months out of date.

Length 183 m; draft 7.8 m.

Type: Tanker. MMSI: 636015337.

Date/timePositionNaut miles runAvg speedWind from/ knotsBaromVisibWave heightAir tempDewpointWater temp
2015-Jan-28 11:30S 32°32' E 152°43'1010.9
2015-Jan-28 10:33S 32°40' E 152°35'1211.8
2015-Jan-28 09:33S 32°50' E 152°29'1110.6
2015-Jan-28 08:33S 33°00' E 152°23'10 9.9
2015-Jan-28 07:33S 33°08' E 152°17'  
2015-Jan-23 16:18S 39°04' E 145°52'912.4
2015-Jan-23 15:33S 39°08' E 146°03'1312.8
2015-Jan-23 14:34S 39°12' E 146°18'1313.4
2015-Jan-23 13:33S 39°08' E 146°35'1413.9
2015-Jan-23 12:34S 39°04' E 146°52'1413.7
2015-Jan-23 11:33S 38°59' E 147°09'1313.1
2015-Jan-23 10:32S 38°55' E 147°25'6112.1
2015-Jan-23 05:27S 38°33' E 148°38'1213.1
2015-Jan-23 04:34S 38°28' E 148°52'7213.4
2015-Jan-22 23:09S 37°50' E 150°10'3613.9
2015-Jan-22 20:33S 37°15' E 150°25'  
2015-Jan-19 21:07S 33°12' E 152°23'1912.1
2015-Jan-19 19:33S 32°56' E 152°36'1413.6
2015-Jan-19 18:33S 32°45' E 152°45'31913.1
2015-Jan-18 18:15S 27°33' E 154°05'4014.4
2015-Jan-18 15:27S 26°53' E 154°05'1714.6
2015-Jan-18 14:19S 26°36' E 154°05'1415.0
2015-Jan-18 13:23S 26°22' E 154°05'1515.1
2015-Jan-18 12:25S 26°08' E 154°05'1415.0
2015-Jan-18 11:31S 25°54' E 154°05'  
Track history (hours):
 
Tides and Currents Weather Stations Pressure Air Temp Water Temp Dewpoint Dewpoint Depression Visibility Wind Speed Wind Dir Waves Ship Positions

High Tide

Last reported at 2015-Jan-28 11:30 UTC. Time now 2015-Mar-31 12:36 UTC.
Position S 32°32' E 152°43'.
Warning: this ship's position is months out of date.

Length 183 m; draft 7.8 m.

Type: Tanker. MMSI: 636015337.

Date/timePositionNaut miles runAvg speedWind from/ knotsBaromVisibWave heightAir tempDewpointWater temp
2015-Jan-28 11:30S 32°32' E 152°43'1010.9
2015-Jan-28 10:33S 32°40' E 152°35'1211.8
2015-Jan-28 09:33S 32°50' E 152°29'1110.6
2015-Jan-28 08:33S 33°00' E 152°23'10 9.9
2015-Jan-28 07:33S 33°08' E 152°17'  
2015-Jan-23 16:18S 39°04' E 145°52'912.4
2015-Jan-23 15:33S 39°08' E 146°03'1312.8
2015-Jan-23 14:34S 39°12' E 146°18'1313.4
2015-Jan-23 13:33S 39°08' E 146°35'1413.9
2015-Jan-23 12:34S 39°04' E 146°52'1413.7
2015-Jan-23 11:33S 38°59' E 147°09'1313.1
2015-Jan-23 10:32S 38°55' E 147°25'6112.1
2015-Jan-23 05:27S 38°33' E 148°38'1213.1
2015-Jan-23 04:34S 38°28' E 148°52'7213.4
2015-Jan-22 23:09S 37°50' E 150°10'3613.9
2015-Jan-22 20:33S 37°15' E 150°25'  
2015-Jan-19 21:07S 33°12' E 152°23'1912.1
2015-Jan-19 19:33S 32°56' E 152°36'1413.6
2015-Jan-19 18:33S 32°45' E 152°45'31913.1
2015-Jan-18 18:15S 27°33' E 154°05'4014.4
2015-Jan-18 15:27S 26°53' E 154°05'1714.6
2015-Jan-18 14:19S 26°36' E 154°05'1415.0
2015-Jan-18 13:23S 26°22' E 154°05'1515.1
2015-Jan-18 12:25S 26°08' E 154°05'1415.0
2015-Jan-18 11:31S 25°54' E 154°05'  

Dump ship's entire track history